Kenai, AK

9:06 PM AKDT on September 30, 2014 (GMT -0800)
Kenai Municipal | Change Station
CLOSE
Current Station
Airport
Location: Kenai,
Elevation: 95 ft
Nearby Weather Stations

Elev 95 ft 60.58 °N, 151.24 °W | Updated 13 minutes ago

Clear
Clear
37 °F
Feels Like 37 °F
N
0
Wind Variable Wind from North

Today
High -- | Low -- °F
--% Chance of Precip.
Yesterday
High -- | Low -- °F
Precip. -- in
8:08 AM 7:39 PM
Waxing Crescent, 43% visible
Pressure 30.27 in
Visibility 10.0 miles
Clouds Clear
Dew Point 28 °F
Humidity 70%
Rainfall 0.00 in
Snow Depth 14 in , 6 in , 0 in
UV 0 out of 12
Pollen Not available.
Air Quality Not available.
Flu Activity Not available.
METAR PAEN 010453Z 00000KT 10SM CLR 03/M02 A3026 RMK AO2 SLP249 T00281022

More Conditions Fewer Conditions

Pressure 30.27 in
Visibility 10.0 miles
Clouds Clear
Dew Point 28 °F
Humidity 70%
Rainfall 0.00 in
Snow Depth 14 in , 6 in , 0 in
UV 0 out of 12
Pollen Not available.
Air Quality Not available.
Flu Activity Not available.
METAR PAEN 010453Z 00000KT 10SM CLR 03/M02 A3026 RMK AO2 SLP249 T00281022

More Conditions Fewer Conditions

10-Day Weather Forecast

Almanac

Astronomy

Sep. 30, 2014 Rise Set
Actual Time 8:08 AM AKDT 7:39 PM AKDT
Civil Twilight 7:26 AM AKDT 8:21 PM AKDT
Nautical Twilight 6:36 AM AKDT 9:10 PM AKDT
Astronomical Twilight 5:44 AM AKDT 10:03 PM AKDT
Moon 3:41 PM AKDT (9/30) 11:05 PM AKDT (9/30)
Length of Visible Light 12h 54m
Length of Day
11h 30m
Tomorrow will be 5m 30s shorter.
Waxing Crescent, 43% of the Moon is Illuminated
Oct 1
Waxing Crescent
Oct 1
First Quarter
Oct 8
Full
Oct 15
Last Quarter
Oct 23
New

Yesterday's Extremes

State Highs State Lows

Community

WunderPhotos

Upload Photos

1,757,850 photos uploaded!

Nearby

Snow Depth

Station Depth Elevation
Imnaviat Creek 14 in 3050 ft
Munson Ridge 6 in 3100 ft
Fort Yukon 0 in 430 ft
Summit Creek 0 in 1400 ft
Coldfoot 3 in 1040 ft

Earthquake Activity

City Distance Mag. Time & Date
No recent earthquake activity has been reported nearby.
Minimum magnitude displayed is 2.5.

Coastal Water Temperatures

Place Temperature
No Stations Reporting

Nearby Weather Stations